Asbury, New Jersey
Current Conditions -  °F | °C
As of 6:53 PM on Sunday 25 Jan 2015 (Local Time) from KSMQ Reporting Station
Broken Clouds Broken Clouds  
Wind Chill: 31°   Ceiling: 4900
Heat Index: 36°   Visibility: 10mi
Dew Point: 14°   Wind: 6mph
Humidity: 41%   Direction: 10°N
Pressure: 29.89"   Gusts: NA
Location:  40.7°N, 75.01°W
Report Text: KSMQ 252353Z AUTO 01005KT 10SM BKN049 02/M10 A2989 RMK AO2 SLP125 T00221100 10067 20022 51034 TSNO
Loading
Personal Weather Stations






























Interactive Weather Map New forecast layout! Learn more

10-Day Weather Forecast

Advertisements
Track Severe Weather on mobile